Pagrindinis puslapis
METAR-TAF:

METAR-TAF

Oro uostai :

Kish Island, Iranas

platuma: 26-31-36N, ilguma: 053-58-54E, Aukštis: 30 m

Dabartinis oras

Ataskaita buvo paskelbta 20 minutes, ne 06:30 UTC
Vėjas 16 kt iš Vakarų/Šiaurės Vakarų
Temperatūra 34°C
Drėgmė 53%
Slėgis 1001 hPa
Matomumas 10 km arba daugiau
nėra debesų žemiau 1500 m ir nėra kamuolinių lietaus debesų

METAR: OIBK 240630Z 29016KT CAVOK 34/23 Q1001

Laikas: 11:20 (06:50 UTC)

Prognozė

Ataskaita buvo paskelbta 1 valandą ir 20 minutes, ne 05:30 UTC
Prognozė galioja nuo 24 metu 06 UTC su 25 metu 12 UTC
Vėjas 12 kt iš Vakarų/Šiaurės Vakarų
Matomumas: 6000 m
Laikinai
nuo 24 metu 09 UTC su 24 metu 18 UTC
Vėjas 24 kt iš Vakarų/Šiaurės Vakarų
Laikinai
nuo 25 metu 04 UTC su 25 metu 12 UTC

TAF: OIBK 240530Z 2406/2512 30012KT 6000 NSC TEMPO 2409/2418 30024KT TEMPO 2504/2512 13007KKT

Orai ataskaitas ir orų prognozės (METAR, TAF).

turimą stotys yra geltonos ir raudonos taškus žemėlapyje.

Perkelti pele per norėdami pamatyti stoties vardą.

Tada spustelėkite, norėdami matyti oro stebėjimo ir prognozės.

Norėdami pakeisti žemėlapį: spustelėkite ant žalios mygtukų su juodo kryžiaus žemyn,; žalią mygtuką su brūkšneliu, jei norite nutolinti; arba žalių rodyklių gretimoms žemėlapius.


METAR-TAF: